Tahuya, Washington
Current Conditions -  °F | °C
As of 11:53 PM on Thursday 30 Oct 2014 (Local Time) from KSHN Reporting Station
Light Rain Light Rain  
Wind Chill: 52°   Ceiling: 7000
Heat Index: 52°   Visibility: 10mi
Dew Point: 51°   Wind: 5mph
Humidity: 97%   Direction: 170°S
Pressure: 29.74"   Gusts: NA
Location:  47.37°N, 123.06°W
Report Text: KSHN 310653Z AUTO 17004KT 10SM -RA OVC070 11/11 A2974 RMK AO2 SLP071 P0001 T01110106 TSNO $
Loading
Personal Weather Stations






























Interactive Weather Map
Tropical Storm Tracking
New forecast layout! Learn more

10-Day Weather Forecast

Advertisements
Track Severe Weather on mobile